createdAt,value
2023-05-14T00:00:33.353Z,48971.31
2023-05-14T00:03:00.320Z,49008.53
2023-05-14T00:05:28.211Z,49020.31
2023-05-14T00:07:55.799Z,49043.81
2023-05-14T00:10:22.903Z,49020.31
2023-05-14T00:12:52.216Z,49004.63
2023-05-14T00:15:20.063Z,48992.88
2023-05-14T00:17:47.201Z,49047.72
2023-05-14T00:20:14.562Z,48996.78
2023-05-14T00:22:41.921Z,49032.06
2023-05-14T00:25:09.824Z,49035.97
2023-05-14T00:27:38.270Z,49012.47
2023-05-14T00:30:07.284Z,49034.00
2023-05-14T00:32:34.660Z,49049.69
2023-05-14T00:35:03.597Z,49020.31
2023-05-14T00:37:30.874Z,49004.63
2023-05-14T00:39:58.467Z,49022.25
2023-05-14T00:42:26.106Z,49032.06
2023-05-14T00:44:53.427Z,49035.97
2023-05-14T00:47:22.132Z,49071.25
2023-05-14T00:49:49.262Z,49032.06
2023-05-14T00:52:17.329Z,49051.66
2023-05-14T00:54:46.929Z,48992.88
2023-05-14T00:57:13.966Z,49028.13
2023-05-14T00:59:42.629Z,48994.84
2023-05-14T01:02:09.593Z,49022.25
2023-05-14T01:04:38.125Z,49014.41
2023-05-14T01:07:18.319Z,49016.38
2023-05-14T01:09:55.428Z,48996.78
2023-05-14T01:12:35.390Z,49024.22
2023-05-14T01:15:21.319Z,49026.19
2023-05-14T01:17:59.550Z,49039.88
2023-05-14T01:20:29.328Z,48992.88
2023-05-14T01:22:57.229Z,49012.47
2023-05-14T01:25:24.250Z,49010.50
2023-05-14T01:27:56.949Z,49018.34
2023-05-14T01:30:45.441Z,49035.97
2023-05-14T01:33:16.507Z,48988.94
2023-05-14T01:35:44.273Z,48988.94
2023-05-14T01:38:13.890Z,49026.19
2023-05-14T01:40:42.337Z,49006.59
2023-05-14T01:43:09.757Z,48983.06
2023-05-14T01:45:37.658Z,49039.88
2023-05-14T01:48:05.718Z,49012.47
2023-05-14T01:50:33.925Z,49016.38
2023-05-14T01:58:24.646Z,48996.78
2023-05-14T02:00:51.510Z,49004.63
2023-05-14T02:03:18.576Z,49014.41
2023-05-14T02:05:45.669Z,49032.06
2023-05-14T02:08:12.498Z,49024.22
2023-05-14T02:10:39.261Z,48969.38
2023-05-14T02:34:42.024Z,49022.25
2023-05-14T02:37:09.541Z,49039.88
2023-05-14T02:39:36.310Z,49045.78
2023-05-14T02:42:03.081Z,49032.06
2023-05-14T02:44:31.874Z,49000.72
2023-05-14T02:46:58.774Z,49071.25
2023-05-14T02:49:25.584Z,49012.47
2023-05-14T02:51:54.669Z,49018.34
2023-05-14T02:54:21.717Z,49032.06
2023-05-14T02:56:48.492Z,49043.81
2023-05-14T02:59:15.704Z,49035.97
2023-05-14T03:01:43.491Z,49032.06
2023-05-14T03:04:11.133Z,49039.88
2023-05-14T03:06:38.226Z,49039.88
2023-05-14T03:09:05.098Z,49024.22
2023-05-14T03:11:32.317Z,49055.56
2023-05-14T03:13:59.091Z,49043.81
2023-05-14T03:16:26.181Z,49012.47
2023-05-14T03:18:53.446Z,49043.81
2023-05-14T03:21:20.763Z,49047.72
2023-05-14T03:23:47.763Z,49035.97
2023-05-14T03:26:14.972Z,49012.47
2023-05-14T03:28:42.237Z,49051.66
2023-05-14T03:31:09.107Z,49020.31
2023-05-14T03:33:36.267Z,49043.81
2023-05-14T03:36:03.540Z,49071.25
2023-05-14T03:38:30.576Z,49083.00
2023-05-14T04:19:14.434Z,49057.53
2023-05-14T04:21:41.147Z,49047.72
2023-05-14T04:24:09.081Z,49014.41
2023-05-14T04:26:35.891Z,49071.25
2023-05-14T04:29:04.158Z,49055.56
2023-05-14T04:31:31.901Z,49008.53
2023-05-14T04:33:58.887Z,49055.56
2023-05-14T04:36:25.564Z,49035.97
2023-05-14T04:38:52.002Z,49057.53
2023-05-14T04:41:18.800Z,49051.66
2023-05-14T04:43:50.431Z,49069.28
2023-05-14T04:46:17.483Z,49047.72
2023-05-14T04:48:43.928Z,49051.66
2023-05-14T04:51:10.500Z,49039.88
2023-05-14T04:53:37.040Z,49071.25
2023-05-14T04:56:03.581Z,49035.97
2023-05-14T04:58:34.621Z,49049.69
2023-05-14T05:01:03.073Z,49041.84
2023-05-14T05:03:29.982Z,49055.56
2023-05-14T05:05:56.572Z,49043.81
2023-05-14T05:08:23.241Z,49035.97
2023-05-14T05:10:50.055Z,49055.56
2023-05-14T05:13:17.133Z,49039.88
2023-05-14T05:15:44.083Z,49047.72
2023-05-14T05:18:10.760Z,49035.97
2023-05-14T05:20:37.260Z,49059.47
2023-05-14T05:23:03.980Z,49067.31
2023-05-14T05:25:31.415Z,49063.41
2023-05-14T05:27:57.816Z,49024.22
2023-05-14T05:30:24.657Z,49063.41
2023-05-14T05:32:51.415Z,49063.41
2023-05-14T05:35:18.179Z,49057.53
2023-05-14T05:37:46.194Z,49032.06
2023-05-14T05:40:14.313Z,49004.63
2023-05-14T05:42:41.711Z,49035.97
2023-05-14T05:45:10.755Z,48969.38
2023-05-14T05:47:41.084Z,48988.94
2023-05-14T05:50:08.867Z,49012.47
2023-05-14T05:52:35.828Z,48996.78
2023-05-14T05:55:02.537Z,48930.19
2023-05-14T05:57:29.283Z,48934.09
2023-05-14T05:59:55.828Z,48908.63
2023-05-14T06:02:22.927Z,48961.53
2023-05-14T06:04:51.467Z,48922.34
2023-05-14T06:07:17.918Z,48914.50
2023-05-14T06:09:44.312Z,48906.69
2023-05-14T06:12:12.877Z,48916.47
2023-05-14T06:14:39.249Z,48947.81
2023-05-14T06:17:07.569Z,48910.59
2023-05-14T06:19:34.107Z,48898.84
2023-05-14T06:22:01.167Z,48881.22
2023-05-14T06:24:27.605Z,48918.44
2023-05-14T06:26:54.365Z,48871.41
2023-05-14T06:29:21.001Z,48875.34
2023-05-14T06:31:49.669Z,48847.91
2023-05-14T06:34:16.430Z,48853.78
2023-05-14T06:36:43.113Z,48853.78
2023-05-14T06:39:10.191Z,48855.75
2023-05-14T06:41:36.696Z,48902.75
2023-05-14T06:44:05.849Z,48883.16
2023-05-14T06:46:32.328Z,48859.66
2023-05-14T06:48:59.627Z,48891.00
2023-05-14T06:51:26.310Z,48871.41
2023-05-14T06:53:54.823Z,48863.56
2023-05-14T06:56:22.457Z,48875.34
2023-05-14T06:58:49.228Z,48867.50
2023-05-14T07:01:17.123Z,48845.94
2023-05-14T07:03:43.676Z,48840.06
2023-05-14T07:06:12.992Z,48857.69
2023-05-14T07:08:40.244Z,48871.41
2023-05-14T07:17:19.412Z,48824.41
2023-05-14T07:19:47.130Z,48832.22
2023-05-14T07:22:13.515Z,48845.94
2023-05-14T07:24:39.952Z,48832.22
2023-05-14T07:27:06.472Z,48844.00
2023-05-14T07:29:34.960Z,48863.56
2023-05-14T07:32:01.848Z,48830.28
2023-05-14T07:34:28.256Z,48847.91
2023-05-14T07:36:54.738Z,48844.00
2023-05-14T07:39:21.704Z,48828.31
2023-05-14T07:41:48.389Z,48828.31
2023-05-14T07:44:14.796Z,48836.16
2023-05-14T07:46:41.268Z,48818.53
2023-05-14T07:49:07.675Z,48847.91
2023-05-14T07:51:34.265Z,48816.56
2023-05-14T07:54:00.964Z,48820.47
2023-05-14T07:56:27.430Z,48804.81
2023-05-14T07:58:53.862Z,48828.31
2023-05-14T08:01:20.763Z,48830.28
2023-05-14T08:03:47.659Z,48832.22
2023-05-14T08:06:14.140Z,48836.16
2023-05-14T08:08:40.844Z,48812.63
2023-05-14T08:11:07.355Z,48849.88
2023-05-14T08:13:33.825Z,48845.94
2023-05-14T08:16:00.353Z,48836.16
2023-05-14T08:18:26.799Z,48824.41
2023-05-14T08:20:53.268Z,48816.56
2023-05-14T08:23:19.674Z,48806.75
2023-05-14T08:25:46.146Z,48830.28
2023-05-14T08:28:12.536Z,48851.81
2023-05-14T08:30:38.985Z,48820.47
2023-05-14T08:33:05.534Z,48832.22
2023-05-14T08:35:31.990Z,48796.97
2023-05-14T08:37:58.400Z,48832.22
2023-05-14T08:40:25.082Z,48800.88
2023-05-14T08:42:52.932Z,48832.22
2023-05-14T08:45:26.640Z,48820.47
2023-05-14T08:47:53.676Z,48836.16
2023-05-14T08:50:22.928Z,48826.34
2023-05-14T08:52:50.261Z,48851.81
2023-05-14T08:55:16.673Z,48820.47
2023-05-14T08:57:43.111Z,48824.41
2023-05-14T09:00:13.115Z,48830.28
2023-05-14T09:02:40.894Z,48836.16
2023-05-14T09:05:09.283Z,48826.34
2023-05-14T09:07:36.263Z,48855.75
2023-05-14T09:10:03.870Z,48836.16
2023-05-14T09:12:31.078Z,48832.22
2023-05-14T09:14:57.561Z,48855.75
2023-05-14T09:17:25.831Z,48816.56
2023-05-14T09:19:53.254Z,48796.97
2023-05-14T09:22:20.504Z,48836.16
2023-05-14T09:24:47.376Z,48830.28
2023-05-14T09:27:22.454Z,48844.00
2023-05-14T09:29:48.879Z,48851.81
2023-05-14T09:32:15.286Z,48851.81
2023-05-14T09:34:42.247Z,48812.63
2023-05-14T09:37:09.756Z,48808.72
2023-05-14T09:39:37.614Z,48816.56
2023-05-14T09:42:04.540Z,48820.47
2023-05-14T09:44:31.822Z,48836.16
2023-05-14T09:46:58.447Z,48828.31
2023-05-14T09:49:24.909Z,48840.06
2023-05-14T09:51:51.813Z,48840.06
2023-05-14T09:54:18.331Z,48816.56
2023-05-14T09:56:44.955Z,48859.66
2023-05-14T09:59:11.557Z,48832.22
2023-05-14T10:01:38.646Z,48828.31
2023-05-14T10:04:07.836Z,48844.00
2023-05-14T10:06:37.849Z,48814.59
2023-05-14T10:09:08.923Z,48830.28
2023-05-14T10:11:38.311Z,48822.44
2023-05-14T10:14:08.719Z,48828.31
2023-05-14T10:16:40.812Z,48840.06
2023-05-14T10:19:10.655Z,48808.72
2023-05-14T10:21:38.817Z,48867.50
2023-05-14T10:24:06.374Z,48832.22
2023-05-14T10:26:37.693Z,48863.56
2023-05-14T10:29:04.064Z,48808.72
2023-05-14T10:31:50.411Z,48828.31
2023-05-14T10:34:34.580Z,48836.16
2023-05-14T10:37:02.535Z,48828.31
2023-05-14T10:39:47.973Z,48816.56
2023-05-14T10:42:27.372Z,48812.63
2023-05-14T10:45:01.683Z,48820.47
2023-05-14T10:47:29.188Z,48820.47
2023-05-14T10:49:57.894Z,48840.06
2023-05-14T10:52:25.557Z,48808.72
2023-05-14T10:54:51.918Z,48820.47
2023-05-14T10:57:19.718Z,48847.91
2023-05-14T10:59:47.701Z,48834.19
2023-05-14T11:02:37.713Z,48836.16
2023-05-14T11:05:08.141Z,48847.91
2023-05-14T11:07:39.972Z,48796.97
2023-05-14T11:10:08.656Z,48826.34
2023-05-14T11:12:37.669Z,48824.41
2023-05-14T11:15:07.748Z,48830.28
2023-05-14T11:17:35.662Z,48840.06
2023-05-14T11:20:02.260Z,48828.31
2023-05-14T11:22:28.923Z,48808.72
2023-05-14T11:24:55.333Z,48828.31
2023-05-14T11:27:23.468Z,48812.63
2023-05-14T11:29:50.938Z,48804.81
2023-05-14T11:32:18.784Z,48836.16
2023-05-14T11:34:46.803Z,48822.44
2023-05-14T11:37:15.712Z,48812.63
2023-05-14T11:39:53.471Z,48832.22
2023-05-14T11:42:21.346Z,48826.34
2023-05-14T11:44:49.655Z,48845.94
2023-05-14T11:47:18.329Z,48832.22
2023-05-14T11:49:45.361Z,48834.19
2023-05-14T11:52:16.522Z,48845.94
2023-05-14T11:54:44.277Z,48816.56
2023-05-14T11:57:16.678Z,48832.22
2023-05-14T11:59:43.421Z,48853.78
2023-05-14T12:02:15.354Z,48851.81
2023-05-14T12:04:42.839Z,48847.91
2023-05-14T12:07:11.336Z,48840.06
2023-05-14T12:09:49.660Z,48826.34
2023-05-14T12:12:21.789Z,48855.75
2023-05-14T12:14:49.877Z,48849.88
2023-05-14T12:17:19.091Z,48838.09
2023-05-14T12:19:48.248Z,48840.06
2023-05-14T12:22:18.657Z,48844.00
2023-05-14T12:24:53.788Z,48844.00
2023-05-14T12:27:26.264Z,48820.47
2023-05-14T12:30:19.907Z,48826.34
2023-05-14T12:32:52.637Z,48851.81
2023-05-14T12:35:21.484Z,48851.81
2023-05-14T12:37:48.022Z,48826.34
2023-05-14T12:40:14.594Z,48832.22
2023-05-14T12:42:41.302Z,48840.06
2023-05-14T12:45:08.634Z,48851.81
2023-05-14T12:47:36.465Z,48840.06
2023-05-14T12:50:03.252Z,48816.56
2023-05-14T12:54:59.072Z,48851.81
2023-05-14T12:57:27.717Z,48824.41
2023-05-14T12:59:55.580Z,48830.28
2023-05-14T13:02:22.454Z,48828.31
2023-05-14T13:04:48.936Z,48816.56
2023-05-14T13:07:15.515Z,48844.00
2023-05-14T13:09:41.938Z,48836.16
2023-05-14T13:12:09.037Z,48834.19
2023-05-14T13:14:36.410Z,48828.31
2023-05-14T13:17:04.655Z,48836.16
2023-05-14T13:19:31.168Z,48859.66
2023-05-14T13:21:57.641Z,48844.00
2023-05-14T13:24:25.006Z,48798.94
2023-05-14T13:26:51.418Z,48847.91
2023-05-14T13:29:17.857Z,48796.97
2023-05-14T13:31:44.341Z,48847.91
2023-05-14T13:34:10.809Z,48824.41
2023-05-14T13:36:39.610Z,48828.31
2023-05-14T13:39:07.152Z,48863.56
2023-05-14T13:41:35.649Z,48914.50
2023-05-14T13:44:02.104Z,49026.19
2023-05-14T13:46:28.867Z,49063.41
2023-05-14T13:48:55.307Z,49053.59
2023-05-14T13:51:22.783Z,49049.69
2023-05-14T13:53:49.996Z,49053.59
2023-05-14T13:56:16.436Z,49026.19
2023-05-14T13:58:42.923Z,49020.31
2023-05-14T14:01:09.403Z,48985.03
2023-05-14T14:03:35.790Z,49039.88
2023-05-14T14:06:02.204Z,49049.69
2023-05-14T14:08:28.623Z,49067.31
2023-05-14T14:10:55.488Z,49047.72
2023-05-14T14:13:22.779Z,49079.06
2023-05-14T14:15:49.984Z,49075.16
2023-05-14T14:18:16.498Z,49043.81
2023-05-14T14:20:42.949Z,49067.31
2023-05-14T14:23:09.337Z,49067.31
2023-05-14T14:25:35.827Z,49051.66
2023-05-14T14:28:02.221Z,49051.66
2023-05-14T14:30:28.864Z,49039.88
2023-05-14T14:32:55.346Z,49047.72
2023-05-14T14:35:23.333Z,49059.47
2023-05-14T14:37:50.792Z,49047.72
2023-05-14T14:40:17.420Z,49028.13
2023-05-14T14:42:44.191Z,49069.28
2023-05-14T14:45:11.201Z,49079.06
2023-05-14T14:47:37.766Z,49065.34
2023-05-14T14:50:04.843Z,49083.00
2023-05-14T14:52:31.313Z,49057.53
2023-05-14T14:54:57.800Z,49051.66
2023-05-14T14:57:24.190Z,49063.41
2023-05-14T14:59:50.591Z,49067.31
2023-05-14T15:02:17.059Z,49083.00
2023-05-14T15:04:43.672Z,49071.25
2023-05-14T15:07:10.066Z,49043.81
2023-05-14T15:09:36.540Z,49094.75
2023-05-14T15:12:03.001Z,49063.41
2023-05-14T15:14:29.409Z,49034.00
2023-05-14T15:16:55.894Z,49035.97
2023-05-14T15:19:22.303Z,49047.72
2023-05-14T15:21:48.890Z,49039.88
2023-05-14T15:24:15.320Z,49063.41
2023-05-14T15:26:41.806Z,49049.69
2023-05-14T15:29:08.244Z,49039.88
2023-05-14T15:31:34.952Z,49035.97
2023-05-14T15:34:01.525Z,49024.22
2023-05-14T15:36:28.627Z,49047.72
2023-05-14T15:38:55.076Z,49039.88
2023-05-14T15:41:22.707Z,49008.53
2023-05-14T15:43:49.137Z,48990.91
2023-05-14T15:46:15.542Z,49020.31
2023-05-14T15:48:42.135Z,49047.72
2023-05-14T15:51:08.664Z,48996.78
2023-05-14T15:53:35.175Z,49028.13
2023-05-14T15:56:02.317Z,49024.22
2023-05-14T15:58:28.810Z,49039.88
2023-05-14T16:00:55.186Z,49020.31
2023-05-14T16:03:21.731Z,49000.72
2023-05-14T16:05:48.581Z,49016.38
2023-05-14T16:08:15.041Z,48988.94
2023-05-14T16:10:41.505Z,48973.28
2023-05-14T16:13:07.921Z,48953.69
2023-05-14T16:15:34.370Z,48961.53
2023-05-14T16:18:00.977Z,49020.31
2023-05-14T16:20:27.402Z,48992.88
2023-05-14T16:22:53.784Z,48953.69
2023-05-14T16:25:20.298Z,48977.19
2023-05-14T16:27:46.761Z,49008.53
2023-05-14T16:30:13.376Z,48990.91
2023-05-14T16:32:41.839Z,48975.25
2023-05-14T16:35:08.863Z,49028.13
2023-05-14T16:37:35.791Z,49020.31
2023-05-14T16:40:02.345Z,49006.59
2023-05-14T16:42:28.913Z,49043.81
2023-05-14T16:44:55.326Z,49043.81
2023-05-14T16:47:21.734Z,49024.22
2023-05-14T16:49:48.524Z,48971.31
2023-05-14T16:52:15.082Z,48916.47
2023-05-14T16:54:41.544Z,48910.59
2023-05-14T16:57:07.965Z,48953.69
2023-05-14T16:59:34.398Z,48994.84
2023-05-14T17:02:00.878Z,48922.34
2023-05-14T17:04:27.542Z,48918.44
2023-05-14T17:06:55.062Z,48926.25
2023-05-14T17:09:21.537Z,48930.19
2023-05-14T17:11:47.933Z,48898.84
2023-05-14T17:14:14.388Z,48902.75
2023-05-14T17:16:43.611Z,48900.78
2023-05-14T17:19:10.094Z,48863.56
2023-05-14T17:21:36.618Z,48934.09
2023-05-14T17:24:03.069Z,48920.38
2023-05-14T17:26:29.536Z,48887.09
2023-05-14T17:28:56.008Z,48879.25
2023-05-14T17:31:23.243Z,48896.88
2023-05-14T17:33:49.734Z,48900.78
2023-05-14T17:36:16.253Z,48916.47
2023-05-14T17:38:42.664Z,48912.56
2023-05-14T17:41:09.779Z,48922.34
2023-05-14T17:43:36.225Z,48885.13
2023-05-14T17:46:03.524Z,48904.72
2023-05-14T17:48:30.034Z,48881.22
2023-05-14T17:50:56.544Z,48883.16
2023-05-14T17:53:24.007Z,48883.16
2023-05-14T17:55:50.764Z,48922.34
2023-05-14T17:58:17.313Z,48891.00
2023-05-14T18:00:44.064Z,48914.50
2023-05-14T18:03:10.730Z,48930.19
2023-05-14T18:05:37.276Z,48910.59
2023-05-14T18:08:03.782Z,48930.19
2023-05-14T18:10:30.239Z,48930.19
2023-05-14T18:12:56.790Z,48894.91
2023-05-14T18:15:25.734Z,48930.19
2023-05-14T18:17:52.812Z,48906.69
2023-05-14T18:20:19.688Z,48894.91
2023-05-14T18:22:46.145Z,48914.50
2023-05-14T18:25:13.654Z,48887.09
2023-05-14T18:27:44.459Z,48902.75
2023-05-14T18:30:15.304Z,48949.78
2023-05-14T18:32:44.175Z,48906.69
2023-05-14T18:35:11.672Z,48916.47
2023-05-14T18:37:38.189Z,48914.50
2023-05-14T18:40:06.865Z,48891.00
2023-05-14T18:42:34.499Z,48934.09
2023-05-14T18:45:01.428Z,48910.59
2023-05-14T18:47:28.043Z,48965.44
2023-05-14T18:49:55.798Z,48955.66
2023-05-14T18:52:26.204Z,49002.66
2023-05-14T18:54:53.748Z,49012.47
2023-05-14T18:57:20.966Z,49018.34
2023-05-14T18:59:47.393Z,49032.06
2023-05-14T19:02:13.832Z,49028.13
2023-05-14T19:04:51.026Z,49022.25
2023-05-14T19:07:18.788Z,49035.97
2023-05-14T19:09:45.227Z,49024.22
2023-05-14T19:12:11.669Z,49024.22
2023-05-14T19:14:38.110Z,49075.16
2023-05-14T19:17:05.484Z,49047.72
2023-05-14T19:19:31.921Z,49037.94
2023-05-14T19:21:58.343Z,49051.66
2023-05-14T19:24:24.854Z,49053.59
2023-05-14T19:26:51.269Z,49035.97
2023-05-14T19:29:17.694Z,49055.56
2023-05-14T19:31:44.182Z,49055.56
2023-05-14T19:34:10.840Z,49039.88
2023-05-14T19:36:37.306Z,49043.81
2023-05-14T19:39:03.859Z,49043.81
2023-05-14T19:41:30.266Z,49069.28
2023-05-14T19:43:56.913Z,49039.88
2023-05-14T19:46:23.632Z,49073.19
2023-05-14T19:48:50.127Z,49016.38
2023-05-14T19:51:16.546Z,49071.25
2023-05-14T19:53:43.107Z,49079.06
2023-05-14T19:56:09.588Z,49057.53
2023-05-14T19:58:36.063Z,49051.66
2023-05-14T20:01:02.585Z,49063.41
2023-05-14T20:03:29.801Z,49039.88
2023-05-14T20:05:56.439Z,49035.97
2023-05-14T20:08:22.861Z,49083.00
2023-05-14T20:10:49.308Z,49043.81
2023-05-14T20:13:15.752Z,49051.66
2023-05-14T20:15:42.899Z,49043.81
2023-05-14T20:18:09.645Z,49049.69
2023-05-14T20:20:36.595Z,49047.72
2023-05-14T20:23:03.567Z,49039.88
2023-05-14T20:25:30.172Z,49071.25
2023-05-14T20:27:56.850Z,49051.66
2023-05-14T20:30:23.352Z,49063.41
2023-05-14T20:32:49.922Z,49043.81
2023-05-14T20:35:16.727Z,49024.22
2023-05-14T20:37:43.164Z,49043.81
2023-05-14T20:40:12.231Z,49028.13
2023-05-14T20:42:39.008Z,49043.81
2023-05-14T20:45:06.619Z,49008.53
2023-05-14T20:47:34.183Z,48985.03
2023-05-14T20:50:01.243Z,49024.22
2023-05-14T20:52:27.666Z,49012.47
2023-05-14T20:54:54.058Z,49024.22
2023-05-14T20:57:20.562Z,49028.13
2023-05-14T20:59:47.504Z,49035.97
2023-05-14T21:02:14.079Z,49032.06
2023-05-14T21:04:43.612Z,49047.72
2023-05-14T21:07:10.362Z,49030.09
2023-05-14T21:09:37.318Z,49039.88
2023-05-14T21:12:04.113Z,49032.06
2023-05-14T21:14:31.837Z,49051.66
2023-05-14T21:16:58.316Z,49035.97
2023-05-14T21:19:27.919Z,49047.72
2023-05-14T21:21:55.547Z,49047.72
2023-05-14T21:24:22.123Z,49047.72
2023-05-14T21:26:48.758Z,49034.00
2023-05-14T21:29:16.518Z,49059.47
2023-05-14T21:31:43.061Z,49063.41
2023-05-14T21:34:09.695Z,49049.69
2023-05-14T21:36:36.400Z,49055.56
2023-05-14T21:50:05.556Z,49008.53
2023-05-14T21:52:32.165Z,48977.19
2023-05-14T21:55:01.704Z,48981.13
2023-05-14T21:57:29.208Z,48994.84
2023-05-14T21:59:56.715Z,48996.78
2023-05-14T22:02:23.505Z,49014.41
2023-05-14T22:04:50.467Z,48994.84
2023-05-14T22:07:17.022Z,49012.47
2023-05-14T22:14:36.884Z,48983.06
2023-05-14T22:17:04.785Z,48953.69
2023-05-14T22:19:31.408Z,48945.84
2023-05-14T22:49:21.760Z,48910.59
2023-05-14T22:51:48.275Z,48939.97
2023-05-14T22:54:15.165Z,48947.81
2023-05-14T22:56:41.764Z,48957.59
2023-05-14T22:59:08.205Z,48994.84
2023-05-14T23:01:35.103Z,48949.78
2023-05-14T23:04:01.888Z,48934.09
2023-05-14T23:06:30.038Z,48967.41
2023-05-14T23:08:56.565Z,48983.06
2023-05-14T23:11:26.280Z,48967.41
2023-05-14T23:13:52.910Z,48965.44
2023-05-14T23:35:52.848Z,48957.59
2023-05-14T23:38:19.711Z,48941.94
2023-05-14T23:40:46.596Z,48941.94
2023-05-14T23:43:14.658Z,48934.09
2023-05-14T23:45:41.562Z,48951.72
2023-05-14T23:48:08.628Z,48957.59
2023-05-14T23:50:35.521Z,48965.44
2023-05-14T23:53:02.193Z,48934.09
2023-05-14T23:55:28.820Z,48957.59
2023-05-14T23:57:55.553Z,48977.19
